Главная страница
METAR-TAF:

METAR-TAF

Аэропорты :

Питтсбург, Пенсильвания, США

Pittsburgh International Airport

широта: 40-30-14N, долгота: 080-15-59W, высота над уровнем моря: 366 м

Текущие метеонаблюдения

Эта сводка был подготовлена 1 час и 2 минут назад, в 22:51 UTC
Ветер 9 Узел от восточно-северо-восточный
Температура 19°C
Влажность 22%
Давление 1024 hPa
Видимость: 16.1 км
Отдельные облака на высоте 25000 фута

METAR: KPIT 222251Z 07009KT 10SM SCT250 19/M03 A3024 RMK AO2 SLP246 T01891033

Время: 19:53 (23:53 UTC)

Прогноз

Эта сводка был подготовлена 33 минут назад, в 23:20 UTC
Прогноз действительный с 23-го 00 UTC до 24-го 06 UTC
Ветер 8 Узел от восточный
Видимость: 10 км
ясное небо
С 23-го 1300 UTC
Ветер 13 Узел от юго-восточный с порывами до 20 Узел
Видимость: 10 км
Отдельные облака на высоте 25000 фута

TAF: KPIT 222320Z 2300/2406 08008KT P6SM SKC FM231300 14013G20KT P6SM SCT250

Метеонаблюдения и прогнозы для более 4000 аэропортов (сводки METAR и TAF).

Имеющиеся станции представлены на карте желтыми и красными точками.

Чтобы увидеть название станции, наведите на нее мышь.

Затем щелкните, чтобы увидеть метеонаблюдения и метеопрогнозы.

Управление картой: чтобы увеличить масштаб, щелкните зеленые кнопки с черным крестиком; чтобы уменьшить масштаб, щелкните зеленую кнопку с тире; для просмотра соседних карт щелкайте зеленые стрелки.


METAR-TAF: